Time;durP1;ratioP1;P1;durP2;ratioP2;P2;SDS_P1;SDS_P2;PMS_P1;PMS_P2;Temp;Humidity;BMP_temperature;BMP_pressure;BME280_temperature;BME280_humidity;BME280_pressure;Samples;Min_cycle;Max_cycle;Signal;HPM_P1;HPM_P2
2022/05/30 04:32:00;;;;;;;11.93;4.03;;;12.00;99.90;;;;;;5233540;23;20557;-77
2022/05/30 04:34:27;;;;;;;3.20;2.73;;;12.10;99.90;;;;;;4935327;29;20450;-78
2022/05/30 04:36:52;;;;;;;9.50;2.87;;;12.10;99.90;;;;;;4935347;29;20486;-79
2022/05/30 04:39:18;;;;;;;9.17;4.27;;;12.20;99.90;;;;;;4934372;29;20585;-74
2022/05/30 04:41:43;;;;;;;12.20;4.60;;;12.10;99.90;;;;;;4934173;29;20661;-75
2022/05/30 04:44:09;;;;;;;6.03;2.30;;;12.10;99.90;;;;;;4933190;29;20265;-72
2022/05/30 04:46:35;;;;;;;8.13;2.77;;;12.20;99.90;;;;;;4934037;29;20662;-73
2022/05/30 04:49:00;;;;;;;7.93;2.90;;;12.20;99.90;;;;;;4934144;29;20226;-76
2022/05/30 04:51:27;;;;;;;8.67;3.50;;;12.20;99.90;;;;;;4933956;29;20214;-76
2022/05/30 04:53:53;;;;;;;6.67;2.53;;;12.20;99.90;;;;;;4933210;29;20187;-75
2022/05/30 04:56:19;;;;;;;7.90;2.87;;;12.20;99.90;;;;;;4933461;29;20561;-75
2022/05/30 04:58:46;;;;;;;8.73;3.10;;;12.20;99.90;;;;;;4934137;29;20188;-75
2022/05/30 05:01:12;;;;;;;5.97;2.30;;;12.20;99.90;;;;;;4936799;29;20486;-75
2022/05/30 05:03:39;;;;;;;5.10;2.77;;;12.30;99.90;;;;;;4936844;29;20431;-73
2022/05/30 05:06:07;;;;;;;11.40;2.83;;;12.30;99.90;;;;;;4936605;29;20225;-73
2022/05/30 05:08:44;;;;;;;13.80;3.57;;;12.30;99.90;;;;;;4936798;29;20423;-73
2022/05/30 05:11:23;;;;;;;10.43;2.80;;;12.30;99.90;;;;;;4936606;29;20478;-73
2022/05/30 05:13:49;;;;;;;11.03;3.00;;;12.30;99.90;;;;;;4936468;29;20441;-74
2022/05/30 05:16:16;;;;;;;7.63;2.90;;;12.30;99.90;;;;;;4936260;29;20482;-74
2022/05/30 05:18:42;;;;;;;7.47;2.53;;;12.30;99.90;;;;;;4936396;29;20446;-74
2022/05/30 05:21:08;;;;;;;15.23;2.93;;;12.40;99.90;;;;;;4936589;29;20938;-74
2022/05/30 05:23:33;;;;;;;10.47;2.67;;;12.40;99.90;;;;;;4938034;29;20180;-74
2022/05/30 05:26:01;;;;;;;6.57;2.90;;;12.40;99.90;;;;;;4936603;29;20191;-74
2022/05/30 05:28:27;;;;;;;12.27;2.80;;;12.40;99.90;;;;;;4936162;29;20631;-75
2022/05/30 05:30:53;;;;;;;9.50;3.30;;;12.40;99.90;;;;;;4935935;29;20494;-74
2022/05/30 05:33:18;;;;;;;11.00;3.20;;;12.40;99.90;;;;;;4935646;29;20938;-76
2022/05/30 05:35:46;;;;;;;16.23;3.00;;;12.50;99.90;;;;;;4935805;29;20231;-74
2022/05/30 05:38:12;;;;;;;7.63;2.40;;;12.50;99.90;;;;;;4936115;29;20218;-73
2022/05/30 05:40:42;;;;;;;6.70;2.57;;;12.50;99.90;;;;;;4935957;29;20441;-73
2022/05/30 05:43:09;;;;;;;11.80;3.27;;;12.60;99.90;;;;;;4935849;29;20454;-73
2022/05/30 05:45:39;;;;;;;11.47;4.10;;;12.60;99.90;;;;;;4935849;29;20435;-74
2022/05/30 05:48:06;;;;;;;6.47;3.13;;;12.60;99.90;;;;;;4935965;29;20892;-74
2022/05/30 05:50:32;;;;;;;6.00;2.40;;;12.60;99.90;;;;;;4935954;29;20453;-74
2022/05/30 05:52:57;;;;;;;10.10;3.80;;;12.60;99.90;;;;;;4935913;29;20431;-74
2022/05/30 05:55:23;;;;;;;14.10;3.60;;;12.70;99.90;;;;;;4966145;28;20258;-74
2022/05/30 05:57:50;;;;;;;8.00;3.40;;;12.70;99.90;;;;;;4936263;29;20194;-74
2022/05/30 06:00:17;;;;;;;12.40;2.80;;;12.70;99.90;;;;;;4936383;29;20246;-73
2022/05/30 06:02:42;;;;;;;7.90;2.30;;;12.70;99.90;;;;;;4936257;29;20427;-73
2022/05/30 06:05:09;;;;;;;9.73;2.90;;;12.80;99.90;;;;;;4936433;29;20575;-74
2022/05/30 06:07:37;;;;;;;8.27;3.50;;;12.80;99.90;;;;;;4936402;29;20186;-74
2022/05/30 06:10:04;;;;;;;24.57;3.20;;;12.80;99.90;;;;;;4936436;29;20446;-74
2022/05/30 06:12:30;;;;;;;11.23;4.30;;;12.80;99.90;;;;;;4936435;29;21030;-73
2022/05/30 06:14:55;;;;;;;12.70;4.40;;;12.80;99.90;;;;;;4936226;29;20514;-73
2022/05/30 06:17:21;;;;;;;11.97;4.10;;;12.80;99.90;;;;;;4936183;29;20658;-74
2022/05/30 06:19:47;;;;;;;10.40;3.50;;;12.80;99.90;;;;;;4936270;29;20538;-74
2022/05/30 06:22:13;;;;;;;12.73;3.37;;;12.90;99.90;;;;;;4936219;29;20291;-74
2022/05/30 06:24:39;;;;;;;11.00;3.17;;;12.90;99.90;;;;;;4936004;29;20509;-74
2022/05/30 06:27:06;;;;;;;12.67;3.40;;;13.00;99.90;;;;;;4936170;29;20187;-74
2022/05/30 06:29:32;;;;;;;5.73;2.63;;;13.00;99.90;;;;;;4935832;29;20410;-74
2022/05/30 06:31:58;;;;;;;6.80;2.83;;;13.00;99.90;;;;;;4935857;29;20530;-74
2022/05/30 06:34:24;;;;;;;11.10;3.30;;;13.10;99.90;;;;;;4935801;29;20426;-74
2022/05/30 06:36:50;;;;;;;12.40;2.30;;;13.10;99.90;;;;;;4935986;29;21065;-73
2022/05/30 06:39:17;;;;;;;10.30;3.80;;;13.10;99.90;;;;;;4935969;29;20779;-73
2022/05/30 06:41:44;;;;;;;4.13;2.00;;;13.20;99.90;;;;;;4935586;29;20273;-74
2022/05/30 06:44:10;;;;;;;13.00;3.97;;;13.20;99.90;;;;;;4935926;29;20435;-74
2022/05/30 06:46:37;;;;;;;9.43;3.73;;;13.20;99.90;;;;;;4935782;29;20431;-74
2022/05/30 06:49:04;;;;;;;13.80;3.20;;;13.20;99.90;;;;;;4935503;29;20423;-74
2022/05/30 06:51:31;;;;;;;5.90;2.90;;;13.20;99.90;;;;;;4935823;29;20463;-74
2022/05/30 06:53:57;;;;;;;8.80;3.63;;;13.20;99.90;;;;;;4935720;29;20442;-74
2022/05/30 06:56:26;;;;;;;9.83;3.30;;;13.00;99.90;;;;;;4935462;29;20478;-74
2022/05/30 06:58:52;;;;;;;9.60;2.73;;;13.00;99.90;;;;;;4934032;29;20183;-73
2022/05/30 07:01:21;;;;;;;8.63;2.43;;;13.20;99.90;;;;;;4935284;29;20458;-74
2022/05/30 07:03:47;;;;;;;8.10;2.43;;;13.30;99.90;;;;;;4935337;29;20438;-74
2022/05/30 07:06:16;;;;;;;9.83;2.90;;;13.40;99.90;;;;;;4935547;29;20439;-73
2022/05/30 07:08:46;;;;;;;5.00;3.17;;;13.40;99.90;;;;;;4935386;29;20776;-74
2022/05/30 07:11:15;;;;;;;3.67;2.50;;;13.50;99.90;;;;;;4935378;29;20883;-73
2022/05/30 07:13:42;;;;;;;8.10;3.50;;;13.50;99.90;;;;;;4935043;29;20972;-74
2022/05/30 07:16:09;;;;;;;9.80;3.17;;;13.60;99.90;;;;;;4935254;29;20916;-74
2022/05/30 07:18:34;;;;;;;6.60;2.40;;;13.60;99.90;;;;;;4935109;29;20423;-74
2022/05/30 07:21:04;;;;;;;5.67;2.30;;;13.60;99.90;;;;;;4934965;29;20490;-74
2022/05/30 07:23:32;;;;;;;6.07;1.80;;;13.60;99.90;;;;;;4934486;29;20178;-74
2022/05/30 07:25:59;;;;;;;10.63;2.37;;;13.60;99.90;;;;;;4934858;29;20780;-74
2022/05/30 07:28:28;;;;;;;6.60;2.37;;;13.50;99.90;;;;;;4934567;29;20423;-73
2022/05/30 07:31:04;;;;;;;12.10;2.70;;;13.50;99.90;;;;;;4934761;29;20822;-74
2022/05/30 07:33:30;;;;;;;6.13;2.43;;;13.50;99.90;;;;;;4934792;29;20473;-74
2022/05/30 07:35:56;;;;;;;4.60;2.90;;;13.60;99.90;;;;;;4934757;29;20474;-74
2022/05/30 07:38:22;;;;;;;6.13;2.20;;;13.60;99.90;;;;;;4934850;29;20423;-74
2022/05/30 07:40:47;;;;;;;5.73;2.40;;;13.70;99.90;;;;;;4934993;29;20178;-74
2022/05/30 07:43:14;;;;;;;4.70;2.30;;;13.70;99.90;;;;;;4934936;29;20235;-74
2022/05/30 07:45:40;;;;;;;8.07;2.77;;;13.60;99.90;;;;;;4935055;29;20266;-74
2022/05/30 07:48:06;;;;;;;9.47;2.30;;;13.70;99.90;;;;;;4934926;29;20437;-74
2022/05/30 07:50:34;;;;;;;7.03;2.00;;;13.80;99.90;;;;;;4934596;29;20946;-73
2022/05/30 07:52:59;;;;;;;8.40;2.47;;;13.80;99.90;;;;;;4934687;29;20435;-74
2022/05/30 07:55:25;;;;;;;6.27;2.40;;;13.90;99.90;;;;;;4934604;29;20561;-74
2022/05/30 07:57:51;;;;;;;11.03;2.37;;;13.90;99.90;;;;;;4934579;29;20177;-74
2022/05/30 08:00:18;;;;;;;6.63;3.07;;;14.00;99.90;;;;;;4934495;29;20210;-74
2022/05/30 08:02:44;;;;;;;11.07;3.00;;;14.00;99.90;;;;;;4934638;29;20179;-74
2022/05/30 08:05:12;;;;;;;4.50;2.17;;;14.10;99.90;;;;;;4934772;29;20440;-74
2022/05/30 08:07:38;;;;;;;6.53;2.20;;;14.10;99.90;;;;;;4934570;29;20570;-74
2022/05/30 08:10:05;;;;;;;10.27;2.77;;;14.00;99.90;;;;;;4934770;29;20910;-74
2022/05/30 08:12:31;;;;;;;5.57;3.03;;;13.80;99.90;;;;;;4944707;29;20485;-73
2022/05/30 08:14:57;;;;;;;7.33;2.97;;;13.80;99.90;;;;;;4953650;29;20426;-74
2022/05/30 08:17:23;;;;;;;8.27;2.73;;;13.90;99.90;;;;;;4954896;29;20442;-74
2022/05/30 08:19:49;;;;;;;10.40;2.13;;;14.00;99.90;;;;;;4954725;29;20909;-73
2022/05/30 08:22:15;;;;;;;7.63;2.10;;;13.90;99.90;;;;;;4954735;29;20182;-73
2022/05/30 08:24:44;;;;;;;8.60;2.07;;;14.00;99.90;;;;;;4954603;29;20246;-73
2022/05/30 08:27:09;;;;;;;5.77;2.63;;;14.10;99.90;;;;;;4954594;29;20434;-73
2022/05/30 08:29:36;;;;;;;9.47;2.10;;;14.10;99.90;;;;;;4954584;29;20430;-73
2022/05/30 08:32:02;;;;;;;7.00;2.73;;;14.20;99.90;;;;;;4954342;28;20312;-73
2022/05/30 08:34:27;;;;;;;6.00;2.10;;;14.30;99.90;;;;;;4955136;28;20426;-73
2022/05/30 08:36:53;;;;;;;7.47;2.57;;;14.40;99.90;;;;;;4958041;29;20557;-73
2022/05/30 08:42:04;;;;;;;6.93;2.10;;;14.50;99.90;;;;;;4946661;29;20846;-72
2022/05/30 08:44:30;;;;;;;2.90;1.50;;;14.70;99.90;;;;;;4946062;29;20464;-71
2022/05/30 08:47:37;;;;;;;4.50;1.73;;;14.70;99.90;;;;;;4947804;29;20434;-73
2022/05/30 08:50:39;;;;;;;4.60;1.67;;;14.80;99.90;;;;;;4941025;29;20474;-74
2022/05/30 08:53:38;;;;;;;15.70;2.53;;;14.70;99.90;;;;;;4945111;29;20933;-74
2022/05/30 08:56:44;;;;;;;8.83;2.30;;;14.70;99.90;;;;;;4944991;29;20837;-73
2022/05/30 08:59:36;;;;;;;6.50;2.30;;;14.70;99.90;;;;;;4944341;29;20517;-72
2022/05/30 09:02:11;;;;;;;6.70;1.70;;;14.70;99.90;;;;;;4944244;29;20489;-71
2022/05/30 09:04:49;;;;;;;7.80;1.93;;;14.70;99.90;;;;;;4970523;28;20520;-73
2022/05/30 09:07:34;;;;;;;5.63;2.00;;;14.70;99.90;;;;;;4947589;29;20432;-72
2022/05/30 09:10:18;;;;;;;7.13;1.67;;;14.70;99.90;;;;;;4943677;29;20430;-72
2022/05/30 09:12:50;;;;;;;2.40;1.33;;;14.70;99.90;;;;;;4938453;29;20435;-71
2022/05/30 09:15:15;;;;;;;8.63;2.00;;;14.70;99.90;;;;;;4951157;29;20859;-72
2022/05/30 09:18:18;;;;;;;9.47;2.20;;;14.80;99.90;;;;;;4951927;29;20438;-72
2022/05/30 09:20:44;;;;;;;4.43;2.17;;;14.70;99.90;;;;;;4951448;29;20604;-74
2022/05/30 09:23:12;;;;;;;3.63;1.43;;;14.80;99.90;;;;;;4951694;29;20426;-73
2022/05/30 09:25:56;;;;;;;4.13;1.30;;;14.80;99.90;;;;;;4951484;29;20198;-78
2022/05/30 09:28:23;;;;;;;2.87;1.20;;;14.80;99.90;;;;;;4951574;29;20430;-73
2022/05/30 09:31:03;;;;;;;7.60;1.80;;;14.90;98.40;;;;;;4951391;29;20474;-72
2022/05/30 09:33:35;;;;;;;4.47;1.60;;;14.90;98.30;;;;;;4939324;29;20426;-72
2022/05/30 09:36:10;;;;;;;7.20;1.40;;;14.90;96.60;;;;;;4938172;29;21009;-72
2022/05/30 09:38:41;;;;;;;3.30;1.20;;;14.90;95.40;;;;;;4950773;29;20999;-74
2022/05/30 09:41:14;;;;;;;7.53;1.43;;;15.00;97.40;;;;;;4951539;29;20453;-74
2022/05/30 09:43:53;;;;;;;2.90;1.30;;;15.00;95.90;;;;;;4944996;29;20450;-73
2022/05/30 09:46:19;;;;;;;3.10;1.17;;;15.00;96.40;;;;;;4946306;28;20433;-74
2022/05/30 09:49:08;;;;;;;4.00;1.80;;;15.00;97.70;;;;;;4945899;29;20435;-73
2022/05/30 09:51:39;;;;;;;2.57;1.23;;;15.00;98.60;;;;;;4946088;29;20265;-74
2022/05/30 09:54:09;;;;;;;3.13;2.10;;;15.00;99.90;;;;;;4945722;29;20998;-73
2022/05/30 09:56:44;;;;;;;4.53;1.93;;;15.10;99.60;;;;;;4944594;29;20831;-73
2022/05/30 09:59:32;;;;;;;8.37;3.53;;;15.10;99.80;;;;;;4945291;29;20449;-73
2022/05/30 10:01:58;;;;;;;7.30;2.33;;;15.10;99.80;;;;;;4946686;29;20516;-74
2022/05/30 10:04:41;;;;;;;6.60;2.20;;;15.20;99.40;;;;;;4945294;29;20471;-74
2022/05/30 10:07:13;;;;;;;5.13;2.40;;;15.20;98.10;;;;;;4944205;29;20518;-74
2022/05/30 10:09:56;;;;;;;7.20;2.07;;;15.00;98.40;;;;;;4942000;29;20586;-74
2022/05/30 10:12:32;;;;;;;6.13;2.03;;;15.10;98.70;;;;;;4942750;29;20570;-75
2022/05/30 10:14:58;;;;;;;3.63;1.90;;;15.10;98.80;;;;;;4944485;29;20434;-74
2022/05/30 10:17:35;;;;;;;3.50;1.97;;;15.20;97.40;;;;;;4945496;29;20509;-73
2022/05/30 10:20:08;;;;;;;2.73;1.73;;;15.20;95.50;;;;;;4942139;29;20267;-74
2022/05/30 10:28:50;;;;;;;1.60;1.50;;;15.30;93.80;;;;;;4951425;29;20523;-72
2022/05/30 10:31:34;;;;;;;2.30;1.43;;;15.30;93.30;;;;;;4947666;29;20465;-73
2022/05/30 10:34:38;;;;;;;3.53;1.30;;;15.20;92.30;;;;;;4937348;29;20491;-73
2022/05/30 10:37:06;;;;;;;2.13;1.30;;;15.40;91.60;;;;;;4946704;29;20488;-74
2022/05/30 10:39:56;;;;;;;3.03;1.30;;;15.50;92.50;;;;;;4949204;29;20430;-74
2022/05/30 10:42:24;;;;;;;2.67;1.53;;;15.50;91.00;;;;;;4917463;29;20483;-74
2022/05/30 10:44:57;;;;;;;2.00;1.53;;;15.60;91.70;;;;;;4917719;29;20424;-74
2022/05/30 10:47:38;;;;;;;2.50;1.80;;;15.60;91.10;;;;;;4917721;29;20436;-74
2022/05/30 10:50:07;;;;;;;6.20;1.20;;;15.60;91.50;;;;;;4917849;29;20938;-74
2022/05/30 10:52:51;;;;;;;5.30;2.03;;;15.60;91.00;;;;;;4917546;29;20426;-74
2022/05/30 10:55:28;;;;;;;4.30;2.30;;;15.60;91.10;;;;;;4917445;29;20463;-74
2022/05/30 10:58:20;;;;;;;5.80;2.10;;;15.50;90.30;;;;;;4916971;29;20435;-74
2022/05/30 11:00:54;;;;;;;4.83;2.10;;;15.50;90.80;;;;;;4916964;29;20440;-74
2022/05/30 11:03:28;;;;;;;4.53;2.00;;;15.50;92.20;;;;;;4917658;29;20759;-74
2022/05/30 11:06:06;;;;;;;4.03;1.80;;;15.40;92.50;;;;;;4917271;29;20483;-74
2022/05/30 11:08:43;;;;;;;2.00;1.77;;;15.50;93.10;;;;;;4917236;29;20451;-74
2022/05/30 11:11:28;;;;;;;2.53;2.17;;;15.50;91.50;;;;;;4917391;29;20431;-74
2022/05/30 11:14:12;;;;;;;5.63;2.20;;;15.50;92.30;;;;;;4917322;29;20435;-74
2022/05/30 11:16:57;;;;;;;7.10;2.13;;;15.40;92.10;;;;;;4917202;29;20569;-74
2022/05/30 11:19:34;;;;;;;3.90;2.10;;;15.50;94.60;;;;;;4917251;29;20522;-74
2022/05/30 11:22:10;;;;;;;5.60;2.50;;;15.50;94.90;;;;;;4917264;29;20435;-74
2022/05/30 11:24:37;;;;;;;3.80;1.67;;;15.60;94.90;;;;;;4917167;29;20434;-74
2022/05/30 11:27:36;;;;;;;1.60;1.40;;;15.60;92.30;;;;;;4917057;29;20500;-74
2022/05/30 11:30:14;;;;;;;10.70;2.03;;;15.70;92.70;;;;;;4895842;29;20428;-74
2022/05/30 11:33:30;;;;;;;3.40;2.07;;;15.70;93.60;;;;;;4917059;29;20452;-74
2022/05/30 11:36:21;;;;;;;6.50;2.47;;;15.90;92.80;;;;;;4900330;29;20484;-75
2022/05/30 11:38:52;;;;;;;6.83;1.93;;;16.00;94.10;;;;;;4917118;29;20461;-74
2022/05/30 11:41:50;;;;;;;4.00;2.73;;;16.00;90.20;;;;;;4916937;29;20502;-74
2022/05/30 11:44:16;;;;;;;3.60;2.20;;;16.10;93.10;;;;;;4916988;29;20785;-74
2022/05/30 11:47:05;;;;;;;2.57;2.20;;;16.00;92.90;;;;;;4916839;29;20456;-74
2022/05/30 11:50:00;;;;;;;3.83;2.00;;;16.10;91.70;;;;;;4916819;29;20176;-74
2022/05/30 11:52:31;;;;;;;4.03;1.93;;;16.00;89.20;;;;;;4916781;29;20507;-74
2022/05/30 11:55:26;;;;;;;4.93;2.20;;;16.10;87.60;;;;;;4916942;29;20862;-74
2022/05/30 11:57:54;;;;;;;3.17;2.10;;;15.90;88.00;;;;;;4914732;29;20814;-74
2022/05/30 12:00:36;;;;;;;4.23;2.30;;;15.90;91.10;;;;;;4916789;29;20456;-74
2022/05/30 12:03:24;;;;;;;5.03;2.37;;;16.00;92.50;;;;;;4916775;29;20949;-74
2022/05/30 12:06:09;;;;;;;3.10;1.97;;;15.90;84.80;;;;;;4916795;29;20519;-74
2022/05/30 12:09:17;;;;;;;2.73;2.30;;;15.90;89.70;;;;;;4918619;29;20483;-74
2022/05/30 12:12:14;;;;;;;3.20;2.17;;;15.90;90.20;;;;;;4920643;29;20514;-74
2022/05/30 12:15:17;;;;;;;4.37;2.43;;;15.90;89.70;;;;;;4921934;29;20430;-73
2022/05/30 12:24:19;;;;;;;2.93;1.93;;;15.90;87.30;;;;;;4938543;29;20437;-73
2022/05/30 12:26:57;;;;;;;4.07;1.63;;;15.90;87.10;;;;;;4938254;29;20434;-73
2022/05/30 12:29:37;;;;;;;4.67;2.00;;;16.00;89.80;;;;;;4938074;29;20423;-73
2022/05/30 12:32:21;;;;;;;4.70;2.00;;;15.80;90.30;;;;;;4938072;29;20825;-73
2022/05/30 12:35:00;;;;;;;7.27;2.30;;;16.00;91.20;;;;;;4938065;29;20493;-73
2022/05/30 12:37:44;;;;;;;2.10;1.53;;;16.10;87.50;;;;;;4937852;29;20466;-74
2022/05/30 12:40:25;;;;;;;1.93;1.83;;;15.90;84.10;;;;;;4938033;29;20930;-73
2022/05/30 12:43:15;;;;;;;3.90;2.17;;;16.00;88.80;;;;;;4937968;29;20478;-72
2022/05/30 12:45:56;;;;;;;2.33;2.07;;;16.10;85.20;;;;;;4938551;29;20449;-77
2022/05/30 12:48:28;;;;;;;3.33;1.87;;;16.20;84.40;;;;;;4950912;29;20439;-75
2022/05/30 12:50:54;;;;;;;2.73;1.80;;;16.20;86.30;;;;;;4955976;29;20426;-75
2022/05/30 12:53:22;;;;;;;4.00;1.73;;;16.20;87.90;;;;;;4957074;29;20426;-75
2022/05/30 12:55:51;;;;;;;4.20;1.90;;;16.30;89.00;;;;;;4957634;29;20222;-74
2022/05/30 12:58:41;;;;;;;4.07;2.10;;;16.40;83.30;;;;;;4957839;29;20434;-74
2022/05/30 13:01:22;;;;;;;3.80;2.40;;;16.40;88.40;;;;;;4957709;29;20501;-74
2022/05/30 13:04:26;;;;;;;8.63;2.37;;;16.40;87.30;;;;;;4957730;29;20793;-75
2022/05/30 13:07:08;;;;;;;4.57;1.90;;;16.40;83.80;;;;;;4957678;29;20542;-75
2022/05/30 13:09:40;;;;;;;3.50;2.10;;;16.40;87.20;;;;;;4957529;29;20839;-75
2022/05/30 13:12:12;;;;;;;2.50;1.80;;;16.50;83.80;;;;;;4957555;29;20434;-74
2022/05/30 13:14:40;;;;;;;1.83;1.60;;;16.50;81.30;;;;;;4950739;29;20427;-73
2022/05/30 13:17:18;;;;;;;5.07;2.10;;;16.50;78.00;;;;;;4944007;29;20504;-73
2022/05/30 13:19:47;;;;;;;2.60;1.93;;;16.60;77.20;;;;;;4945173;29;20823;-71
2022/05/30 13:22:35;;;;;;;15.33;2.33;;;16.50;78.30;;;;;;4946961;29;20438;-71
2022/05/30 13:25:04;;;;;;;2.07;1.90;;;16.60;78.20;;;;;;4968251;28;20497;-71
2022/05/30 13:27:30;;;;;;;2.00;1.63;;;16.70;77.60;;;;;;4947304;29;20437;-70
2022/05/30 13:30:04;;;;;;;4.47;1.90;;;16.80;79.30;;;;;;4947745;29;20524;-71
2022/05/30 13:32:31;;;;;;;4.70;2.00;;;16.80;80.90;;;;;;4944812;29;20222;-71
2022/05/30 13:35:00;;;;;;;2.53;1.70;;;16.90;76.80;;;;;;4945924;29;20452;-71
2022/05/30 13:37:29;;;;;;;3.03;2.27;;;16.90;76.50;;;;;;4947680;29;20474;-71
2022/05/30 13:39:59;;;;;;;1.70;1.50;;;16.80;73.80;;;;;;4947399;29;20790;-71
2022/05/30 13:42:46;;;;;;;2.30;2.10;;;16.90;78.80;;;;;;4943441;29;20478;-70
2022/05/30 13:45:12;;;;;;;1.83;1.43;;;17.00;83.00;;;;;;4944970;29;20954;-73
2022/05/30 13:47:41;;;;;;;2.77;1.70;;;17.00;81.00;;;;;;4946186;29;20485;-72
2022/05/30 13:50:07;;;;;;;3.73;2.20;;;17.10;78.80;;;;;;4943676;29;20179;-72
2022/05/30 13:52:36;;;;;;;2.83;2.03;;;17.10;78.10;;;;;;4946577;28;20433;-73
2022/05/30 13:55:06;;;;;;;3.73;1.57;;;17.00;80.10;;;;;;4947646;29;20438;-74
2022/05/30 13:57:31;;;;;;;5.33;1.73;;;17.20;80.90;;;;;;4946484;29;20535;-74
2022/05/30 14:00:07;;;;;;;2.90;1.60;;;17.20;76.70;;;;;;4945877;29;20808;-72
2022/05/30 14:02:39;;;;;;;4.60;1.57;;;17.20;75.80;;;;;;4944301;29;20179;-71
2022/05/30 14:05:11;;;;;;;5.90;1.77;;;17.20;76.90;;;;;;4940406;29;20938;-78
2022/05/30 14:07:46;;;;;;;1.90;1.63;;;17.30;77.90;;;;;;4936425;29;20552;-78
2022/05/30 14:10:16;;;;;;;5.63;2.10;;;17.30;78.00;;;;;;4936507;29;20484;-74
2022/05/30 14:12:45;;;;;;;2.57;1.80;;;17.20;77.10;;;;;;4938750;29;20438;-74
2022/05/30 14:15:26;;;;;;;3.53;1.90;;;17.20;77.20;;;;;;4935697;29;20962;-77
2022/05/30 14:17:54;;;;;;;2.33;1.37;;;17.30;74.10;;;;;;4935795;29;20447;-75
2022/05/30 14:20:29;;;;;;;5.50;1.83;;;17.30;78.00;;;;;;4935875;29;20494;-74
2022/05/30 14:23:16;;;;;;;8.53;2.20;;;17.30;76.10;;;;;;4933221;29;20498;-74
2022/05/30 14:25:48;;;;;;;2.40;1.50;;;17.20;80.60;;;;;;4934413;29;20435;-73
2022/05/30 14:28:49;;;;;;;2.33;1.63;;;17.30;76.70;;;;;;4935243;29;20977;-72
2022/05/30 14:31:18;;;;;;;5.17;1.40;;;17.10;74.20;;;;;;4934715;29;20466;-73
2022/05/30 14:34:13;;;;;;;3.10;1.50;;;17.00;77.00;;;;;;4935263;29;20443;-73
2022/05/30 14:36:46;;;;;;;1.93;1.67;;;16.90;78.70;;;;;;4933197;29;20876;-72
2022/05/30 14:39:20;;;;;;;4.93;2.43;;;16.90;79.50;;;;;;4935165;29;20438;-75
2022/05/30 14:42:01;;;;;;;2.30;1.60;;;17.00;75.90;;;;;;4935367;29;20843;-73
2022/05/30 14:44:38;;;;;;;4.53;1.40;;;16.90;78.50;;;;;;4934736;29;20430;-78
2022/05/30 14:47:09;;;;;;;4.37;2.20;;;16.80;77.70;;;;;;4933618;29;20443;-77
2022/05/30 14:49:45;;;;;;;4.87;2.30;;;16.80;79.50;;;;;;4938093;29;20446;-78
2022/05/30 14:52:15;;;;;;;3.53;1.70;;;16.80;80.50;;;;;;4934789;29;20436;-77
2022/05/30 14:54:47;;;;;;;3.00;1.70;;;16.80;77.20;;;;;;4936403;29;20427;-77
2022/05/30 14:57:22;;;;;;;7.90;1.73;;;16.80;81.00;;;;;;4935875;29;20993;-77
2022/05/30 14:59:48;;;;;;;5.47;2.20;;;16.80;77.50;;;;;;4938687;29;20437;-77
2022/05/30 15:05:02;;;;;;;2.37;1.73;;;16.70;78.50;;;;;;4935808;29;20430;-75
2022/05/30 15:07:34;;;;;;;1.70;1.60;;;16.80;80.30;;;;;;4936539;29;20464;-76
2022/05/30 15:10:01;;;;;;;4.70;1.60;;;16.70;82.50;;;;;;4936785;28;20470;-76
2022/05/30 15:12:26;;;;;;;8.70;2.10;;;16.80;80.30;;;;;;4933859;29;20438;-75
2022/05/30 15:14:52;;;;;;;8.50;2.53;;;16.80;77.80;;;;;;4935973;29;21082;-76
2022/05/30 15:17:18;;;;;;;6.30;2.17;;;16.80;76.30;;;;;;4936137;29;20636;-75
2022/05/30 15:19:43;;;;;;;2.03;1.67;;;16.80;79.30;;;;;;4936206;29;20175;-76
2022/05/30 15:22:13;;;;;;;5.43;2.67;;;16.90;82.00;;;;;;4935131;29;20187;-76
2022/05/30 15:24:56;;;;;;;3.00;2.40;;;16.90;79.30;;;;;;4934963;29;20210;-78
2022/05/30 15:27:25;;;;;;;3.07;2.50;;;16.90;78.70;;;;;;4918521;29;20438;-76
2022/05/30 15:29:50;;;;;;;2.27;2.07;;;16.90;77.40;;;;;;4914979;29;20436;-77
2022/05/30 15:32:24;;;;;;;5.83;2.57;;;16.90;72.80;;;;;;4915661;29;20514;-77
2022/05/30 15:34:51;;;;;;;2.67;2.47;;;16.90;77.10;;;;;;4916125;29;20202;-77
2022/05/30 15:37:18;;;;;;;3.53;2.03;;;16.80;74.80;;;;;;4915849;29;20475;-79
2022/05/30 15:39:46;;;;;;;3.80;2.27;;;16.80;76.20;;;;;;4915967;29;20518;-78
2022/05/30 15:42:12;;;;;;;3.60;2.20;;;16.90;74.30;;;;;;4915541;29;20435;-76
2022/05/30 15:44:39;;;;;;;3.10;2.40;;;16.90;74.60;;;;;;4915522;29;20531;-78
2022/05/30 15:47:06;;;;;;;5.73;3.30;;;16.90;75.80;;;;;;4915712;29;20435;-77
2022/05/30 15:49:32;;;;;;;6.10;2.70;;;16.90;73.90;;;;;;4915864;29;20879;-78
2022/05/30 15:52:17;;;;;;;3.83;2.90;;;16.80;73.20;;;;;;4914372;29;20451;-77
2022/05/30 15:57:37;;;;;;;2.90;2.27;;;16.80;72.80;;;;;;4915207;29;20482;-78
2022/05/30 16:00:06;;;;;;;5.00;3.20;;;16.80;74.30;;;;;;4915806;29;20436;-79
2022/05/30 16:02:32;;;;;;;4.07;2.53;;;16.80;73.20;;;;;;4915823;29;20435;-79
2022/05/30 16:04:59;;;;;;;6.80;3.00;;;16.80;75.60;;;;;;4915530;29;20491;-78
2022/05/30 16:07:25;;;;;;;12.30;3.20;;;16.80;77.40;;;;;;4915532;29;20536;-80
2022/05/30 16:09:59;;;;;;;3.40;2.80;;;16.80;75.80;;;;;;4917375;29;20531;-75
2022/05/30 16:12:46;;;;;;;4.70;2.30;;;16.70;74.70;;;;;;4935313;29;20443;-76
2022/05/30 16:15:13;;;;;;;4.83;3.13;;;16.80;77.80;;;;;;4928954;29;20429;-81
2022/05/30 16:17:39;;;;;;;4.10;2.40;;;16.80;73.20;;;;;;4927547;29;20452;-76
2022/05/30 16:20:08;;;;;;;4.10;2.90;;;16.90;72.50;;;;;;4930393;29;20502;-76
2022/05/30 16:22:35;;;;;;;5.60;2.70;;;17.00;71.10;;;;;;4943095;29;20665;-77
2022/05/30 16:25:02;;;;;;;5.47;3.37;;;17.00;74.60;;;;;;4940175;29;20443;-77
2022/05/30 16:27:30;;;;;;;5.40;3.40;;;17.10;72.60;;;;;;4943918;29;20956;-78
2022/05/30 16:29:57;;;;;;;3.43;3.10;;;17.10;68.30;;;;;;4944724;29;20527;-79
2022/05/30 16:32:23;;;;;;;5.87;2.87;;;17.10;70.70;;;;;;4940422;29;20529;-77
2022/05/30 16:34:49;;;;;;;4.00;2.60;;;17.30;68.70;;;;;;4951458;29;20528;-78
2022/05/30 16:37:15;;;;;;;3.33;3.07;;;17.40;69.00;;;;;;4954103;29;20218;-78
2022/05/30 16:39:40;;;;;;;5.67;2.90;;;17.40;68.40;;;;;;4954821;29;20178;-79
2022/05/30 16:42:07;;;;;;;7.83;3.47;;;17.50;70.30;;;;;;4955262;29;20485;-80
2022/05/30 16:44:33;;;;;;;3.73;3.30;;;17.50;68.60;;;;;;4953474;29;20234;-80
2022/05/30 16:46:59;;;;;;;5.50;2.97;;;17.60;65.70;;;;;;4955477;29;20430;-81
2022/05/30 16:49:30;;;;;;;7.93;3.43;;;17.70;65.50;;;;;;4953977;29;20202;-80
2022/05/30 16:51:57;;;;;;;4.27;3.37;;;17.80;63.60;;;;;;4944527;29;20505;-74
2022/05/30 16:54:23;;;;;;;4.97;3.10;;;17.80;62.40;;;;;;4943191;29;20423;-74
2022/05/30 16:56:51;;;;;;;3.90;3.00;;;17.70;65.00;;;;;;4946740;29;20905;-75
2022/05/30 16:59:17;;;;;;;3.30;2.87;;;17.60;68.50;;;;;;4947851;29;20228;-75
2022/05/30 17:01:43;;;;;;;3.60;2.73;;;17.60;70.80;;;;;;4945146;29;21005;-76
2022/05/30 17:04:10;;;;;;;6.13;2.47;;;17.50;67.30;;;;;;4946614;29;20525;-76
2022/05/30 17:06:37;;;;;;;4.67;2.37;;;17.40;70.20;;;;;;4947777;29;20174;-76
2022/05/30 17:09:04;;;;;;;4.40;2.60;;;17.30;70.20;;;;;;4946449;29;20445;-75
2022/05/30 17:11:30;;;;;;;7.60;2.70;;;17.10;73.30;;;;;;4945912;29;20434;-74
2022/05/30 17:13:56;;;;;;;3.60;2.20;;;17.10;73.10;;;;;;4947646;29;20509;-76
2022/05/30 17:16:34;;;;;;;3.40;3.10;;;17.10;72.20;;;;;;4945807;29;20475;-75
2022/05/30 17:19:02;;;;;;;4.73;2.63;;;17.10;71.40;;;;;;4942807;29;20202;-76
2022/05/30 17:21:29;;;;;;;6.20;3.10;;;16.90;71.80;;;;;;4951030;29;20957;-73
2022/05/30 17:23:55;;;;;;;3.93;2.67;;;17.00;75.70;;;;;;4954415;29;20427;-73
2022/05/30 17:29:17;;;;;;;5.93;2.40;;;17.10;78.90;;;;;;4956121;29;20441;-73
2022/05/30 17:31:43;;;;;;;3.47;2.63;;;17.10;77.50;;;;;;4956277;29;20496;-73
2022/05/30 17:34:09;;;;;;;6.90;3.30;;;17.30;76.90;;;;;;4955776;29;20422;-75
2022/05/30 17:36:35;;;;;;;5.30;2.70;;;17.40;76.80;;;;;;4956185;29;20631;-73
2022/05/30 17:39:01;;;;;;;3.87;2.80;;;17.60;74.80;;;;;;4956426;29;20437;-74
2022/05/30 17:41:27;;;;;;;3.57;2.73;;;17.60;74.30;;;;;;4956201;29;20428;-74
2022/05/30 17:43:53;;;;;;;2.50;2.07;;;17.60;75.80;;;;;;4956310;29;20190;-75
2022/05/30 17:46:32;;;;;;;3.13;1.97;;;17.60;75.10;;;;;;4956120;29;20434;-74
2022/05/30 17:49:07;;;;;;;3.03;2.47;;;17.70;73.30;;;;;;4956187;29;20178;-75
2022/05/30 17:51:59;;;;;;;3.67;2.40;;;17.70;72.70;;;;;;4958075;29;20434;-80
2022/05/30 17:54:25;;;;;;;4.50;2.93;;;17.60;72.20;;;;;;4959150;29;20422;-76
2022/05/30 17:56:51;;;;;;;4.63;2.50;;;17.30;72.70;;;;;;4955814;29;20481;-76
2022/05/30 17:59:17;;;;;;;2.77;2.57;;;17.30;70.60;;;;;;4954489;29;20442;-76
2022/05/30 18:01:43;;;;;;;4.00;2.50;;;17.10;71.40;;;;;;4955937;29;20584;-76
2022/05/30 18:04:09;;;;;;;6.00;2.43;;;17.00;71.60;;;;;;4955822;29;20433;-76
2022/05/30 18:07:08;;;;;;;9.23;3.30;;;16.80;72.20;;;;;;4955256;28;20233;-76